Time;durP1;ratioP1;P1;durP2;ratioP2;P2;SDS_P1;SDS_P2;PMS_P1;PMS_P2;Temp;Humidity;BMP_temperature;BMP_pressure;BME280_temperature;BME280_humidity;BME280_pressure;Samples;Min_cycle;Max_cycle;Signal;HPM_P1;HPM_P2
2023/10/09 00:03:08;;;;;;;2.65;1.00;;;;;;;11.51;100.00;98743.25;1225148;75;2930602;-68
2023/10/09 00:05:45;;;;;;;1.65;0.90;;;;;;;11.68;100.00;98740.22;1226096;75;2920392;-71
2023/10/09 00:08:21;;;;;;;2.75;1.00;;;;;;;11.60;100.00;98739.00;1200708;75;4809294;-70
2023/10/09 00:10:57;;;;;;;1.80;1.20;;;;;;;11.34;100.00;98739.28;1217696;75;3099207;-69
2023/10/09 00:13:31;;;;;;;4.65;1.55;;;;;;;11.54;100.00;98749.81;1224427;75;2924206;-70
2023/10/09 00:16:15;;;;;;;2.35;1.10;;;;;;;11.57;100.00;98748.91;1223424;75;2922458;-69
2023/10/09 00:18:51;;;;;;;1.70;1.10;;;;;;;11.43;100.00;98746.75;1225557;75;2922114;-69
2023/10/09 00:21:27;;;;;;;3.50;1.50;;;;;;;11.37;100.00;98737.59;1221904;75;3029173;-71
2023/10/09 00:24:03;;;;;;;3.15;1.45;;;;;;;11.28;100.00;98719.94;1222570;75;2979126;-68
2023/10/09 00:26:43;;;;;;;3.80;1.45;;;;;;;11.18;100.00;98699.19;1224876;75;2925665;-68
2023/10/09 00:29:21;;;;;;;2.60;1.40;;;;;;;11.22;100.00;98702.53;1210335;75;4024546;-73
2023/10/09 00:32:04;;;;;;;3.10;1.40;;;;;;;11.06;100.00;98659.75;1225479;75;2915234;-73
2023/10/09 00:34:42;;;;;;;2.40;1.40;;;;;;;11.31;100.00;98668.91;1224362;75;2910677;-70
2023/10/09 00:37:16;;;;;;;1.50;1.00;;;;;;;11.60;100.00;98659.47;1211958;75;3838251;-71
2023/10/09 00:39:55;;;;;;;3.00;1.50;;;;;;;11.33;100.00;98671.97;1225445;75;2921088;-72
2023/10/09 00:42:32;;;;;;;2.90;1.50;;;;;;;11.30;100.00;98695.56;1222362;75;3017125;-73
2023/10/09 00:45:08;;;;;;;1.85;1.30;;;;;;;11.13;100.00;98686.09;1223854;75;2951477;-71
2023/10/09 00:47:43;;;;;;;2.90;1.55;;;;;;;11.43;100.00;98683.69;1225473;75;2928193;-68
2023/10/09 00:50:21;;;;;;;2.00;1.20;;;;;;;11.79;100.00;98671.19;1222901;75;2932248;-67
2023/10/09 00:53:02;;;;;;;2.00;1.20;;;;;;;11.59;100.00;98666.91;1225621;75;2916940;-73
2023/10/09 00:55:44;;;;;;;1.20;0.85;;;;;;;11.69;100.00;98651.25;1225536;75;2920471;-70
2023/10/09 00:58:23;;;;;;;3.05;1.45;;;;;;;11.75;100.00;98646.66;1223246;75;2999759;-71
2023/10/09 01:00:56;;;;;;;1.80;0.95;;;;;;;11.92;100.00;98628.66;1223949;75;2919799;-72
2023/10/09 01:03:33;;;;;;;0.90;0.80;;;;;;;12.15;100.00;98638.22;1225298;75;2913873;-73
2023/10/09 01:06:21;;;;;;;3.30;1.35;;;;;;;11.81;100.00;98625.63;1224567;75;2917613;-66
2023/10/09 01:11:47;;;;;;;1.50;1.00;;;;;;;11.81;100.00;98611.13;1224165;75;2928294;-71
2023/10/09 01:14:21;;;;;;;0.95;0.80;;;;;;;12.10;100.00;98608.66;1223535;75;2945011;-72
2023/10/09 01:16:54;;;;;;;1.25;0.75;;;;;;;12.28;100.00;98612.56;1224042;75;2913174;-74
2023/10/09 01:19:27;;;;;;;0.65;0.55;;;;;;;12.19;100.00;98634.53;1225558;75;2925064;-71
2023/10/09 01:22:12;;;;;;;0.95;0.70;;;;;;;12.21;100.00;98632.84;1223054;75;3065983;-69
2023/10/09 01:24:51;;;;;;;1.55;1.10;;;;;;;12.18;100.00;98622.81;1210447;75;4024906;-71
2023/10/09 01:27:32;;;;;;;1.65;1.05;;;;;;;11.95;100.00;98618.75;1226391;75;2915002;-71
2023/10/09 01:30:05;;;;;;;2.35;1.10;;;;;;;12.06;100.00;98610.78;1223721;75;2914838;-72
2023/10/09 01:32:38;;;;;;;1.55;0.80;;;;;;;12.41;100.00;98626.84;1225531;75;2928287;-68
2023/10/09 01:35:20;;;;;;;0.90;0.60;;;;;;;12.49;100.00;98622.53;1225473;75;2923427;-70
2023/10/09 01:37:53;;;;;;;0.65;0.65;;;;;;;12.49;100.00;98608.03;1223606;75;2965054;-69
2023/10/09 01:40:37;;;;;;;0.85;0.65;;;;;;;12.29;100.00;98592.88;1225440;75;2916622;-71
2023/10/09 01:43:10;;;;;;;0.40;0.40;;;;;;;12.50;100.00;98606.81;1223938;75;2911426;-71
2023/10/09 01:45:46;;;;;;;0.80;0.80;;;;;;;12.31;100.00;98593.19;1224642;75;2923524;-69
2023/10/09 01:48:23;;;;;;;0.50;0.50;;;;;;;12.52;100.00;98579.63;1224500;75;2932591;-69
2023/10/09 01:50:58;;;;;;;0.60;0.40;;;;;;;12.56;100.00;98570.00;1224394;75;2924631;-72
2023/10/09 01:53:33;;;;;;;0.80;0.60;;;;;;;12.53;100.00;98573.69;1223953;83;2931437;-70
2023/10/09 01:56:17;;;;;;;0.50;0.50;;;;;;;12.68;100.00;98571.00;1218138;75;3102272;-72
2023/10/09 01:58:50;;;;;;;0.60;0.55;;;;;;;12.68;100.00;98562.75;1221592;75;3051575;-72
2023/10/09 02:01:23;;;;;;;1.10;0.60;;;;;;;12.65;100.00;98571.94;1222377;75;2927605;-74
2023/10/09 02:04:03;;;;;;;0.60;0.50;;;;;;;12.61;100.00;98560.38;1222868;75;2938189;-76
2023/10/09 02:06:37;;;;;;;0.70;0.70;;;;;;;12.73;100.00;98559.38;1211990;75;3829625;-68
2023/10/09 02:09:19;;;;;;;0.60;0.60;;;;;;;12.71;100.00;98553.56;1225429;75;2936182;-70
2023/10/09 02:11:55;;;;;;;0.40;0.40;;;;;;;12.61;100.00;98549.38;1209676;75;4039749;-66
2023/10/09 02:14:27;;;;;;;0.70;0.70;;;;;;;12.54;100.00;98547.72;1221354;75;3086007;-71
2023/10/09 02:17:09;;;;;;;0.60;0.40;;;;;;;12.58;100.00;98545.56;1225396;67;2919188;-71
2023/10/09 02:19:48;;;;;;;0.80;0.60;;;;;;;12.69;100.00;98549.78;1226084;75;2920318;-68
2023/10/09 02:22:25;;;;;;;;;;;;;;;12.58;100.00;98545.56;1226888;75;2918400;-70
2023/10/09 02:25:05;;;;;;;0.90;0.70;;;;;;;12.71;100.00;98541.84;1224402;75;2921122;-75
2023/10/09 02:27:46;;;;;;;0.50;0.50;;;;;;;12.63;100.00;98548.88;1225267;75;2916854;-72
2023/10/09 02:30:19;;;;;;;1.00;0.65;;;;;;;12.51;100.00;98551.41;1154697;75;8672100;-71
2023/10/09 02:33:06;;;;;;;0.60;0.60;;;;;;;12.57;100.00;98549.53;1225275;75;2918504;-71
2023/10/09 02:35:42;;;;;;;1.25;0.60;;;;;;;12.55;100.00;98540.25;1225979;75;2923133;-71
2023/10/09 02:38:15;;;;;;;0.60;0.60;;;;;;;12.60;100.00;98547.84;1225572;75;2922566;-71
2023/10/09 02:43:44;;;;;;;1.10;0.60;;;;;;;12.64;100.00;98542.19;1223831;75;2937611;-67
2023/10/09 02:46:18;;;;;;;0.55;0.50;;;;;;;12.64;100.00;98534.69;1225253;75;2921223;-68
2023/10/09 02:48:53;;;;;;;0.70;0.60;;;;;;;12.60;100.00;98536.09;1225435;75;2922012;-69
2023/10/09 02:51:41;;;;;;;1.70;0.65;;;;;;;12.52;100.00;98532.94;1223456;75;2950288;-72
2023/10/09 02:54:35;;;;;;;1.20;0.80;;;;;;;12.58;100.00;98533.84;1225876;75;2929880;-68
2023/10/09 02:57:15;;;;;;;1.25;0.85;;;;;;;12.54;100.00;98541.47;1224093;75;2920913;-72
2023/10/09 02:59:51;;;;;;;1.20;0.90;;;;;;;12.68;100.00;98540.03;1222544;75;2982382;-71
2023/10/09 03:02:24;;;;;;;1.25;0.80;;;;;;;12.64;100.00;98531.94;1225103;75;2917633;-67
2023/10/09 03:04:56;;;;;;;1.10;0.80;;;;;;;12.61;100.00;98538.38;1225469;75;2927087;-69
2023/10/09 03:07:29;;;;;;;1.50;1.10;;;;;;;12.48;100.00;98535.09;1224864;75;2915972;-76
2023/10/09 03:10:09;;;;;;;2.20;1.40;;;;;;;12.56;100.00;98530.78;1224492;75;2915872;-68
2023/10/09 03:12:43;;;;;;;2.05;1.40;;;;;;;12.72;100.00;98521.38;1222159;75;3067076;-69
2023/10/09 03:15:18;;;;;;;2.00;1.30;;;;;;;12.62;100.00;98515.16;1225174;75;2914193;-71
2023/10/09 03:17:51;;;;;;;1.95;1.30;;;;;;;12.66;100.00;98520.50;1224491;75;2920928;-67
2023/10/09 03:20:24;;;;;;;1.75;1.30;;;;;;;12.52;100.00;98524.72;1224310;67;2923548;-69
2023/10/09 03:22:57;;;;;;;0.75;0.65;;;;;;;12.63;100.00;98513.19;1223707;75;2921490;-71
2023/10/09 03:25:30;;;;;;;1.20;0.80;;;;;;;12.62;100.00;98501.44;1222890;75;2957138;-69
2023/10/09 03:28:03;;;;;;;0.90;0.60;;;;;;;12.64;100.00;98509.22;1218134;75;3087361;-72
2023/10/09 03:30:40;;;;;;;0.80;0.60;;;;;;;12.65;100.00;98503.28;1210077;75;4042558;-69
2023/10/09 03:33:13;;;;;;;0.65;0.50;;;;;;;12.61;100.00;98510.16;1225389;75;2922808;-73
2023/10/09 03:35:46;;;;;;;0.95;0.70;;;;;;;12.67;100.00;98495.28;1225303;75;2919807;-69
2023/10/09 03:38:19;;;;;;;0.80;0.50;;;;;;;12.58;100.00;98495.38;1217995;75;3040235;-70
2023/10/09 03:40:52;;;;;;;0.65;0.40;;;;;;;12.52;100.00;98492.50;1225515;75;2922535;-73
2023/10/09 03:43:24;;;;;;;1.20;0.40;;;;;;;12.40;100.00;98484.50;1225299;75;2919538;-69
2023/10/09 03:46:03;;;;;;;1.40;0.55;;;;;;;12.36;100.00;98479.97;1225444;75;2905552;-67
2023/10/09 03:48:36;;;;;;;0.80;0.60;;;;;;;12.17;100.00;98477.78;1225073;75;2914362;-68
2023/10/09 03:51:15;;;;;;;0.80;0.60;;;;;;;12.33;100.00;98471.88;1223489;75;2923612;-70
2023/10/09 03:53:47;;;;;;;0.80;0.50;;;;;;;12.26;100.00;98461.25;1222688;75;2938276;-71
2023/10/09 03:56:21;;;;;;;0.40;0.40;;;;;;;12.10;100.00;98463.19;1219409;75;3027560;-68
2023/10/09 03:58:56;;;;;;;3.60;1.15;;;;;;;11.63;100.00;98469.31;1224792;75;2916189;-71
2023/10/09 04:01:37;;;;;;;5.95;4.45;;;;;;;11.59;100.00;98463.22;1221350;75;3093535;-68
2023/10/09 04:04:13;;;;;;;4.10;2.75;;;;;;;11.77;100.00;98463.16;1224863;75;2922147;-71
2023/10/09 04:06:46;;;;;;;2.70;1.90;;;;;;;11.67;100.00;98467.19;1221479;75;3048500;-69
2023/10/09 04:09:39;;;;;;;1.55;1.40;;;;;;;11.78;100.00;98458.44;1224977;75;2928271;-74
2023/10/09 04:15:05;;;;;;;1.40;1.10;;;;;;;11.55;100.00;98446.19;1224559;75;2937427;-70
2023/10/09 04:17:42;;;;;;;1.05;0.85;;;;;;;11.56;100.00;98447.72;1221777;75;3023048;-75
2023/10/09 04:23:16;;;;;;;1.10;0.90;;;;;;;11.29;100.00;98430.88;1224718;75;2920789;-69
2023/10/09 04:25:50;;;;;;;1.15;0.75;;;;;;;11.46;100.00;98439.50;1224232;75;2922290;-68
2023/10/09 04:28:23;;;;;;;1.55;0.80;;;;;;;11.35;100.00;98430.25;1222940;75;3001601;-70
2023/10/09 04:30:58;;;;;;;1.45;0.80;;;;;;;11.19;100.00;98415.69;1224169;75;2926476;-73
2023/10/09 04:33:42;;;;;;;1.45;0.60;;;;;;;11.02;100.00;98409.78;1219884;75;3019869;-68
2023/10/09 04:36:21;;;;;;;0.60;0.60;;;;;;;11.14;100.00;98412.81;1224693;75;2930251;-72
2023/10/09 04:39:15;;;;;;;0.60;0.60;;;;;;;11.22;100.00;98411.25;1219832;75;3024010;-71
2023/10/09 04:42:18;;;;;;;0.50;0.50;;;;;;;11.21;100.00;98412.50;1209555;75;3987060;-67
2023/10/09 04:44:59;;;;;;;0.50;0.50;;;;;;;10.98;100.00;98417.41;1224343;75;2931767;-73
2023/10/09 04:47:38;;;;;;;1.30;0.80;;;;;;;11.07;100.00;98422.88;1222878;75;2925530;-68
2023/10/09 04:50:36;;;;;;;1.05;0.80;;;;;;;11.08;100.00;98412.66;1220540;75;3075795;-67
2023/10/09 04:53:22;;;;;;;2.40;1.55;;;;;;;11.01;100.00;98405.53;1224089;75;2941481;-70
2023/10/09 04:56:03;;;;;;;4.80;3.65;;;;;;;10.97;100.00;98395.97;1222788;75;2952869;-74
2023/10/09 04:58:39;;;;;;;3.25;2.80;;;;;;;10.94;100.00;98394.88;1223443;75;2929240;-70
2023/10/09 05:01:35;;;;;;;3.55;3.00;;;;;;;10.77;100.00;98388.97;1224207;75;2924106;-67
2023/10/09 05:04:26;;;;;;;4.10;3.30;;;;;;;10.76;100.00;98394.94;1222605;75;2928063;-73
2023/10/09 05:07:22;;;;;;;4.25;3.20;;;;;;;10.74;100.00;98384.44;1223246;75;2931204;-71
2023/10/09 05:10:06;;;;;;;3.50;2.55;;;;;;;10.88;100.00;98383.78;1220776;75;2931768;-70
2023/10/09 05:12:46;;;;;;;4.35;3.15;;;;;;;10.81;100.00;98392.31;1224011;75;2927840;-69
2023/10/09 05:15:16;;;;;;;12.10;10.40;;;;;;;10.64;100.00;98367.25;1222722;75;2914197;-72
2023/10/09 05:17:56;;;;;;;10.70;9.10;;;;;;;10.81;100.00;98364.19;1223328;75;2927236;-71
2023/10/09 05:23:44;;;;;;;7.00;6.00;;;;;;;10.79;100.00;98350.19;1222798;75;2922746;-72
2023/10/09 05:26:26;;;;;;;4.60;3.60;;;;;;;10.70;100.00;98350.19;1224251;75;2929229;-72
2023/10/09 05:29:19;;;;;;;5.10;2.60;;;;;;;10.72;100.00;98358.72;1222333;75;2926264;-69
2023/10/09 05:31:56;;;;;;;2.55;1.95;;;;;;;10.61;100.00;98362.69;1207493;75;4055763;-73
2023/10/09 05:34:33;;;;;;;1.90;1.40;;;;;;;10.53;100.00;98363.47;1223498;75;2945971;-69
2023/10/09 05:37:17;;;;;;;2.80;1.60;;;;;;;10.68;100.00;98345.19;1221214;75;2976490;-71
2023/10/09 05:40:22;;;;;;;1.30;1.10;;;;;;;10.84;100.00;98355.03;1224212;75;2920288;-73
2023/10/09 05:43:02;;;;;;;1.60;1.35;;;;;;;10.82;100.00;98344.56;1224637;75;2904669;-68
2023/10/09 05:51:13;;;;;;;1.70;1.10;;;;;;;11.16;100.00;98347.34;1223659;75;2927319;-72
2023/10/09 06:05:40;;;;;;;1.55;1.20;;;;;;;11.64;100.00;98336.44;1217604;75;3055030;-70
2023/10/09 06:08:07;;;;;;;1.10;1.00;;;;;;;11.65;100.00;98335.22;1207364;75;3986153;-68
2023/10/09 06:10:41;;;;;;;1.45;1.10;;;;;;;11.76;100.00;98327.25;1223932;75;2923639;-68
2023/10/09 06:19:07;;;;;;;1.35;1.00;;;;;;;13.15;100.00;98326.75;1222249;75;2929068;-69
2023/10/09 06:24:41;;;;;;;1.80;1.15;;;;;;;13.70;100.00;98333.56;1222823;75;2933231;-70
2023/10/09 06:27:24;;;;;;;1.00;0.80;;;;;;;14.80;93.62;98333.78;1223986;75;2923068;-71
2023/10/09 06:33:04;;;;;;;1.30;1.20;;;;;;;16.09;80.33;98315.28;1224340;75;2922272;-70
2023/10/09 06:35:39;;;;;;;1.95;1.15;;;;;;;16.00;80.12;98325.81;1223656;75;2933871;-70
2023/10/09 06:38:33;;;;;;;1.10;0.80;;;;;;;15.34;82.70;98315.41;1223967;75;2925214;-72
2023/10/09 06:41:34;;;;;;;2.15;1.40;;;;;;;14.47;88.46;98307.41;1224442;75;2921060;-69
2023/10/09 06:44:17;;;;;;;3.10;1.25;;;;;;;15.91;82.00;98299.91;1210380;75;3918209;-71
2023/10/09 06:46:52;;;;;;;2.15;0.95;;;;;;;16.50;76.50;98290.00;1224456;75;2945358;-72
2023/10/09 06:49:36;;;;;;;2.30;1.20;;;;;;;15.70;77.86;98302.06;1222843;75;2980876;-74
2023/10/09 06:52:15;;;;;;;2.15;1.20;;;;;;;14.83;85.41;98300.47;1223336;75;2919986;-72
2023/10/09 06:54:53;;;;;;;2.15;1.30;;;;;;;14.96;86.39;98302.84;1221892;75;2973957;-75
2023/10/09 07:03:11;;;;;;;1.80;1.00;;;;;;;16.44;76.77;98283.72;1221671;75;2945156;-71
2023/10/09 07:06:00;;;;;;;3.95;2.10;;;;;;;16.36;75.49;98280.69;1223467;75;2926533;-71
2023/10/09 07:08:32;;;;;;;4.35;2.80;;;;;;;16.68;74.44;98277.69;1222918;75;2922520;-69
2023/10/09 07:13:55;;;;;;;3.00;1.55;;;;;;;16.39;73.46;98271.41;1222646;75;2925121;-71
2023/10/09 07:16:28;;;;;;;2.10;1.00;;;;;;;16.64;72.52;98271.66;1222867;75;2923658;-71
2023/10/09 07:19:35;;;;;;;1.15;0.90;;;;;;;16.48;73.84;98253.09;1225680;75;2922976;-68
2023/10/09 07:22:16;;;;;;;2.30;1.70;;;;;;;14.63;82.05;98248.22;1225107;75;2910229;-69
2023/10/09 07:24:50;;;;;;;2.65;1.65;;;;;;;15.16;78.54;98246.09;1224150;75;2921541;-73
2023/10/09 07:27:43;;;;;;;3.05;1.70;;;;;;;14.50;78.63;98245.81;1221383;75;2992742;-71
2023/10/09 07:33:16;;;;;;;4.80;2.35;;;;;;;15.23;75.35;98246.38;1221875;75;2962854;-72
2023/10/09 07:35:57;;;;;;;4.75;2.55;;;;;;;15.98;74.35;98230.38;1222066;75;3081371;-72
2023/10/09 07:38:35;;;;;;;4.00;2.05;;;;;;;16.02;76.18;98224.63;1223454;75;2925916;-71
2023/10/09 07:43:56;;;;;;;3.35;2.10;;;;;;;16.14;73.33;98219.88;1224439;75;2924966;-71
2023/10/09 07:46:32;;;;;;;3.80;1.90;;;;;;;17.69;67.98;98193.75;1212537;75;3809382;-69
2023/10/09 07:49:12;;;;;;;2.30;1.35;;;;;;;18.51;61.12;98197.75;1222133;75;2982046;-75
2023/10/09 07:51:47;;;;;;;2.65;1.50;;;;;;;19.06;59.35;98189.47;1223879;75;2925625;-72
2023/10/09 07:54:31;;;;;;;2.10;1.30;;;;;;;18.83;57.11;98198.03;1198951;75;4840648;-69
2023/10/09 07:57:15;;;;;;;2.40;1.20;;;;;;;19.13;55.87;98203.50;1223617;75;2942076;-72
2023/10/09 08:00:00;;;;;;;3.05;1.60;;;;;;;19.82;53.88;98206.22;1221790;75;2980068;-68
2023/10/09 08:02:36;;;;;;;5.20;1.75;;;;;;;18.37;56.63;98210.72;1220885;75;3086881;-70
2023/10/09 08:05:18;;;;;;;3.50;1.50;;;;;;;19.86;53.17;98193.53;1224362;75;2927162;-72
2023/10/09 08:08:18;;;;;;;1.50;1.05;;;;;;;20.92;48.73;98186.84;1221573;75;3001854;-67
2023/10/09 08:13:56;;;;;;;5.00;1.65;;;;;;;19.01;53.84;98173.63;1222048;75;2933508;-72
2023/10/09 08:16:36;;;;;;;6.00;3.20;;;;;;;20.00;52.68;98175.66;1224383;75;2924125;-67
2023/10/09 08:19:32;;;;;;;4.05;2.55;;;;;;;20.92;51.40;98156.22;1219784;75;2995087;-70
2023/10/09 08:22:37;;;;;;;5.55;1.90;;;;;;;21.36;49.76;98151.06;1222914;75;2923005;-71
2023/10/09 08:28:39;;;;;;;2.10;1.50;;;;;;;18.94;55.41;98155.53;1222973;75;2923130;-70
2023/10/09 08:31:02;;;;;;;3.55;1.50;;;;;;;17.88;59.33;98155.16;1223267;75;2925306;-68
2023/10/09 08:33:44;;;;;;;3.55;1.60;;;;;;;16.81;60.35;98150.81;1220275;75;2943335;-67
2023/10/09 08:36:22;;;;;;;2.45;1.40;;;;;;;16.86;61.95;98156.81;1223953;75;2927577;-69
2023/10/09 08:38:58;;;;;;;3.80;1.90;;;;;;;16.67;61.22;98143.50;1223652;75;2932692;-75
2023/10/09 08:41:33;;;;;;;2.45;1.75;;;;;;;16.04;63.78;98153.06;1212956;75;3796512;-70
2023/10/09 08:44:06;;;;;;;2.30;1.40;;;;;;;17.28;60.83;98132.78;1220466;75;3049951;-74
2023/10/09 08:46:39;;;;;;;3.30;1.65;;;;;;;17.06;61.34;98148.22;1224669;75;2922210;-70
2023/10/09 08:49:13;;;;;;;4.80;1.70;;;;;;;17.97;60.17;98145.78;1224529;75;2941116;-65
2023/10/09 08:51:49;;;;;;;5.05;2.35;;;;;;;16.96;61.75;98139.44;1223499;75;2932539;-72
2023/10/09 08:54:21;;;;;;;4.45;2.25;;;;;;;17.58;60.94;98133.66;1224554;75;2925474;-70
2023/10/09 08:57:01;;;;;;;2.70;1.70;;;;;;;18.42;58.17;98134.31;1223794;75;2925132;-67
2023/10/09 08:59:35;;;;;;;2.20;1.20;;;;;;;19.20;56.54;98126.50;1224400;75;2932202;-70
2023/10/09 09:02:11;;;;;;;4.00;1.80;;;;;;;17.32;60.59;98120.19;1220792;83;3021289;-72
2023/10/09 09:04:45;;;;;;;3.55;2.00;;;;;;;17.52;59.89;98115.56;1206020;75;4081687;-69
2023/10/09 09:07:39;;;;;;;5.85;4.20;;;;;;;18.50;58.87;98108.28;1223741;75;2924538;-73
2023/10/09 09:10:21;;;;;;;4.00;2.05;;;;;;;18.00;59.47;98114.28;1225309;75;2927067;-71
2023/10/09 09:13:00;;;;;;;5.65;2.35;;;;;;;16.63;62.57;98117.38;1223395;75;2921216;-72
2023/10/09 09:15:39;;;;;;;3.40;1.85;;;;;;;17.69;59.81;98116.22;1222490;75;3005790;-75
2023/10/09 09:18:17;;;;;;;2.45;1.50;;;;;;;17.53;61.71;98112.25;1221255;75;3013419;-72
2023/10/09 09:20:53;;;;;;;2.50;1.40;;;;;;;18.22;59.38;98097.44;1223125;75;2930714;-69
2023/10/09 09:23:27;;;;;;;3.25;1.40;;;;;;;18.23;59.08;98092.66;1223374;75;2923217;-68
2023/10/09 09:26:08;;;;;;;4.25;1.65;;;;;;;17.24;61.96;98114.44;1220744;75;2942363;-72
2023/10/09 09:28:56;;;;;;;5.55;2.45;;;;;;;16.03;65.30;98095.59;1225154;75;2921020;-68
2023/10/09 09:31:29;;;;;;;4.10;2.40;;;;;;;16.39;65.09;98107.63;1225034;75;2922591;-74
2023/10/09 09:34:16;;;;;;;2.35;1.10;;;;;;;17.17;64.13;98108.69;1224110;75;2907935;-73
2023/10/09 09:36:57;;;;;;;2.75;1.20;;;;;;;17.36;63.09;98092.97;1221010;75;3044079;-71
2023/10/09 09:39:33;;;;;;;4.15;1.90;;;;;;;15.89;67.20;98097.31;1223084;75;2927689;-69
2023/10/09 09:42:07;;;;;;;4.60;2.25;;;;;;;15.95;67.25;98087.06;1222699;75;2925683;-72
2023/10/09 09:44:46;;;;;;;4.80;1.75;;;;;;;15.55;68.72;98100.75;1224091;75;2927437;-69
2023/10/09 09:47:23;;;;;;;4.80;2.05;;;;;;;15.63;69.44;98092.75;1224804;75;2926615;-71
2023/10/09 09:49:59;;;;;;;8.20;2.50;;;;;;;15.90;68.06;98074.75;1223186;75;2921391;-72
2023/10/09 09:52:38;;;;;;;5.80;2.65;;;;;;;16.25;67.59;98075.47;1223561;75;2924980;-69
2023/10/09 09:55:18;;;;;;;7.40;4.00;;;;;;;16.57;67.40;98067.63;1222493;75;2958028;-69
2023/10/09 09:57:54;;;;;;;3.85;2.20;;;;;;;17.28;65.47;98080.97;1210832;75;3929526;-71
2023/10/09 10:00:44;;;;;;;3.70;2.00;;;;;;;18.26;62.00;98066.69;1222611;75;2982610;-73
2023/10/09 10:03:21;;;;;;;4.30;1.80;;;;;;;17.19;65.02;98056.34;1224107;75;2928834;-71
2023/10/09 10:05:56;;;;;;;3.25;1.95;;;;;;;16.78;65.25;98070.84;1223504;75;2920114;-72
2023/10/09 10:08:34;;;;;;;3.90;2.35;;;;;;;16.52;67.18;98057.34;1220545;75;3071511;-72
2023/10/09 10:11:13;;;;;;;4.20;1.90;;;;;;;17.08;66.21;98062.72;1209540;75;4077905;-72
2023/10/09 10:14:05;;;;;;;5.55;1.80;;;;;;;18.39;62.66;98058.50;1208202;75;4093738;-70
2023/10/09 10:17:06;;;;;;;2.85;1.40;;;;;;;18.51;61.79;98059.88;1216461;75;3102718;-72
2023/10/09 10:20:25;;;;;;;3.60;1.65;;;;;;;19.18;60.31;98054.84;1221831;75;3020166;-71
2023/10/09 10:23:25;;;;;;;4.45;1.85;;;;;;;19.06;59.74;98051.44;1224286;75;2926415;-74
2023/10/09 10:26:02;;;;;;;3.40;2.10;;;;;;;19.24;59.47;98046.44;1222801;75;2921207;-71
2023/10/09 10:28:45;;;;;;;3.05;1.70;;;;;;;20.42;57.26;98042.53;1224463;75;2929353;-72
2023/10/09 10:31:18;;;;;;;2.55;1.60;;;;;;;20.89;55.47;98045.97;1208963;75;4055489;-72
2023/10/09 10:34:12;;;;;;;2.70;1.50;;;;;;;21.26;54.58;98028.22;1224098;75;2941304;-69
2023/10/09 10:36:45;;;;;;;4.05;1.40;;;;;;;21.19;54.53;98018.50;1224786;75;2924945;-73
2023/10/09 10:39:35;;;;;;;5.80;2.10;;;;;;;20.94;55.46;98015.25;1223219;75;2933121;-73
2023/10/09 10:42:08;;;;;;;3.30;1.50;;;;;;;21.46;54.17;98010.09;1217919;75;3051687;-70
2023/10/09 10:44:41;;;;;;;2.65;1.60;;;;;;;22.14;53.29;98017.53;1221808;75;2975677;-69
2023/10/09 10:47:32;;;;;;;5.40;1.80;;;;;;;20.99;53.86;98008.06;1224487;75;2916952;-69
2023/10/09 10:50:35;;;;;;;4.10;1.75;;;;;;;21.46;53.09;98007.31;1224477;75;2927164;-71
2023/10/09 10:53:17;;;;;;;3.60;2.05;;;;;;;22.67;52.22;98002.44;1224280;75;2925897;-68
2023/10/09 10:56:18;;;;;;;4.55;1.35;;;;;;;21.32;53.41;97994.69;1221096;75;3074783;-70
2023/10/09 10:59:11;;;;;;;3.10;1.50;;;;;;;23.52;49.63;97979.09;1224885;75;2918518;-69
2023/10/09 11:01:53;;;;;;;2.75;1.10;;;;;;;22.10;51.22;97980.88;1224586;75;2920280;-69
2023/10/09 11:04:38;;;;;;;2.30;1.10;;;;;;;22.37;51.80;97978.69;1222306;75;2952260;-70
2023/10/09 11:07:16;;;;;;;1.75;1.15;;;;;;;22.93;50.68;97968.69;1224473;75;2917659;-70
2023/10/09 11:10:14;;;;;;;5.60;1.80;;;;;;;21.36;52.62;97981.94;1224948;75;2881705;-71
2023/10/09 11:13:29;;;;;;;2.00;1.10;;;;;;;23.07;50.50;97960.22;1220336;75;3131878;-68
2023/10/09 11:15:55;;;;;;;2.95;1.30;;;;;;;23.14;50.10;97970.66;1222851;75;2950760;-71
2023/10/09 11:18:28;;;;;;;4.75;2.85;;;;;;;21.61;52.43;97951.72;1224145;75;2928948;-69
2023/10/09 11:26:40;;;;;;;3.70;1.40;;;;;;;21.65;53.97;97935.41;1223799;75;2927420;-66
2023/10/09 11:29:14;;;;;;;2.25;1.00;;;;;;;22.95;51.55;97937.44;1223514;75;2919763;-70
2023/10/09 11:32:05;;;;;;;2.45;1.20;;;;;;;23.51;50.21;97938.47;1223168;75;2922286;-74
2023/10/09 11:34:37;;;;;;;1.25;0.70;;;;;;;24.46;48.42;97933.72;1224312;75;2933739;-73
2023/10/09 11:37:31;;;;;;;2.55;1.30;;;;;;;23.76;50.09;97926.75;1221676;75;2947764;-74
2023/10/09 11:40:22;;;;;;;3.45;1.40;;;;;;;22.37;52.84;97936.84;1224289;75;2925497;-71
2023/10/09 11:42:57;;;;;;;1.65;0.85;;;;;;;23.39;50.61;97938.09;1222777;75;2933084;-69
2023/10/09 11:45:37;;;;;;;3.00;1.10;;;;;;;22.97;52.11;97910.44;1224863;75;2928103;-70
2023/10/09 11:48:22;;;;;;;2.50;1.40;;;;;;;21.95;53.38;97925.03;1224661;75;2926533;-74
2023/10/09 11:51:13;;;;;;;2.85;1.25;;;;;;;23.84;49.67;97926.78;1220841;75;3100718;-66
2023/10/09 11:53:45;;;;;;;1.65;0.90;;;;;;;23.70;49.48;97915.75;1223191;75;2922305;-71
2023/10/09 11:56:21;;;;;;;4.15;1.75;;;;;;;22.60;51.68;97927.81;1225033;75;2923945;-67
2023/10/09 11:58:54;;;;;;;2.15;1.10;;;;;;;23.37;50.57;97932.31;1224780;75;2931950;-70
2023/10/09 12:01:35;;;;;;;1.05;0.80;;;;;;;24.05;49.76;97904.91;1224155;75;2930682;-69
2023/10/09 12:04:09;;;;;;;1.75;0.60;;;;;;;24.02;49.92;97903.97;1220487;75;2991155;-68
2023/10/09 12:06:43;;;;;;;2.00;1.05;;;;;;;23.25;51.62;97911.63;1212716;75;3795945;-73
2023/10/09 12:09:23;;;;;;;1.25;0.70;;;;;;;23.36;51.02;97916.13;1220630;75;3099656;-72
2023/10/09 12:12:00;;;;;;;3.70;1.50;;;;;;;21.96;53.73;97902.19;1220451;67;2951551;-73
2023/10/09 12:14:34;;;;;;;2.10;0.95;;;;;;;23.56;52.04;97903.25;1212442;75;3794583;-67
2023/10/09 12:17:08;;;;;;;2.50;0.90;;;;;;;23.10;53.34;97908.81;1223867;75;2930302;-71
2023/10/09 12:19:42;;;;;;;2.25;1.10;;;;;;;23.22;52.01;97909.97;1217950;75;3112908;-70
2023/10/09 12:22:16;;;;;;;0.70;0.60;;;;;;;23.38;51.75;97905.88;1224059;75;2933410;-70
2023/10/09 12:24:48;;;;;;;1.15;0.75;;;;;;;23.36;52.01;97905.69;1224172;75;2920814;-67
2023/10/09 12:27:24;;;;;;;1.20;0.75;;;;;;;23.77;51.14;97892.66;1224351;75;2925002;-72
2023/10/09 12:29:58;;;;;;;1.50;0.75;;;;;;;23.76;50.89;97904.38;1222431;75;2928826;-71
2023/10/09 12:32:35;;;;;;;1.95;0.80;;;;;;;22.63;54.29;97907.19;1223624;75;2917610;-69
2023/10/09 12:35:17;;;;;;;2.75;1.00;;;;;;;22.81;54.15;97894.97;1223889;75;2929399;-75
2023/10/09 12:37:49;;;;;;;0.65;0.60;;;;;;;23.74;52.30;97893.78;1224142;75;2937473;-71
2023/10/09 12:40:24;;;;;;;1.45;0.70;;;;;;;23.56;52.52;97892.81;1224156;75;2926133;-71
2023/10/09 12:42:59;;;;;;;3.20;1.00;;;;;;;23.22;52.66;97904.38;1222736;75;2919780;-71
2023/10/09 12:45:34;;;;;;;3.40;1.00;;;;;;;23.26;52.54;97899.16;1220882;75;2999287;-71
2023/10/09 12:48:09;;;;;;;2.55;1.00;;;;;;;23.12;52.47;97884.63;1222124;75;3051152;-70
2023/10/09 12:50:44;;;;;;;1.75;0.80;;;;;;;23.25;52.03;97894.88;1206736;75;4083720;-74
2023/10/09 12:53:17;;;;;;;1.60;0.70;;;;;;;23.09;53.26;97887.78;1223240;75;2920077;-70
2023/10/09 12:55:56;;;;;;;1.60;0.80;;;;;;;23.26;54.11;97881.63;1225074;75;2918557;-69
2023/10/09 12:58:31;;;;;;;1.25;0.80;;;;;;;22.91;54.55;97892.38;1224341;75;2931411;-67
2023/10/09 13:01:09;;;;;;;1.80;0.70;;;;;;;23.18;53.88;97884.44;1224837;75;2917570;-69
2023/10/09 13:03:42;;;;;;;6.20;1.30;;;;;;;21.68;56.50;97866.72;1224759;75;2921113;-67
2023/10/09 13:06:15;;;;;;;3.95;1.15;;;;;;;21.36;58.47;97867.75;1224713;75;2924786;-72
2023/10/09 13:08:47;;;;;;;1.55;1.10;;;;;;;22.40;56.35;97879.94;1222947;75;2922747;-73
2023/10/09 13:11:21;;;;;;;0.90;0.80;;;;;;;22.88;56.47;97882.31;1224483;75;2937581;-71
2023/10/09 13:14:06;;;;;;;1.75;0.90;;;;;;;23.03;55.39;97887.22;1224488;75;2941317;-72
2023/10/09 13:16:40;;;;;;;2.90;1.80;;;;;;;22.36;57.34;97870.44;1220978;75;3098689;-73
2023/10/09 13:19:13;;;;;;;1.60;1.10;;;;;;;23.02;55.45;97872.53;1222450;75;2974825;-68
2023/10/09 13:21:48;;;;;;;1.55;1.00;;;;;;;22.53;56.52;97865.09;1222215;75;3070550;-70